Atlanticbeach, North Carolina
Current Conditions -  °F | °C
As of 8:58 PM on Friday 19 Dec 2014 (Local Time) from KMRH Reporting Station
Clear Clear  
Wind Chill: 39°   Ceiling: Unl
Heat Index: 42°   Visibility: 10mi
Dew Point: 33°   Wind: 5mph
Humidity: 70%   Direction: 40°NE
Pressure: 30.21"   Gusts: NA
Location:  34.6984°N, 76.7775°W
Report Text: KMRH 200158Z AUTO 04004KT 10SM CLR 06/01 A3021 RMK AO2 SLP229 I1000 T00560006 TSNO
Loading
Personal Weather Stations






























Interactive Weather Map New forecast layout! Learn more

10-Day Weather Forecast

Advertisements
Track Severe Weather on mobile